sensor_id;sensor_type;location;lat;lon;timestamp;temperature;humidity
15705;DHT22;7952;48.396;12.806;2023-04-06T00:00:16;2.90;40.70
15705;DHT22;7952;48.396;12.806;2023-04-06T00:02:42;2.90;40.70
15705;DHT22;7952;48.396;12.806;2023-04-06T00:05:08;2.90;40.70
15705;DHT22;7952;48.396;12.806;2023-04-06T00:07:33;2.90;40.70
15705;DHT22;7952;48.396;12.806;2023-04-06T00:09:59;2.80;40.60
15705;DHT22;7952;48.396;12.806;2023-04-06T00:12:25;2.80;40.70
15705;DHT22;7952;48.396;12.806;2023-04-06T00:14:50;2.80;40.70
15705;DHT22;7952;48.396;12.806;2023-04-06T00:17:16;2.80;40.70
15705;DHT22;7952;48.396;12.806;2023-04-06T00:19:41;2.80;40.70
15705;DHT22;7952;48.396;12.806;2023-04-06T00:22:07;2.80;40.80
15705;DHT22;7952;48.396;12.806;2023-04-06T00:24:32;2.80;40.80
15705;DHT22;7952;48.396;12.806;2023-04-06T00:26:58;2.80;40.80
15705;DHT22;7952;48.396;12.806;2023-04-06T00:29:23;2.70;40.80
15705;DHT22;7952;48.396;12.806;2023-04-06T00:31:49;2.70;40.80
15705;DHT22;7952;48.396;12.806;2023-04-06T00:34:15;2.70;40.80
15705;DHT22;7952;48.396;12.806;2023-04-06T00:36:41;2.70;40.80
15705;DHT22;7952;48.396;12.806;2023-04-06T00:39:06;2.70;40.80
15705;DHT22;7952;48.396;12.806;2023-04-06T00:41:32;2.70;40.80
15705;DHT22;7952;48.396;12.806;2023-04-06T00:43:58;2.70;40.90
15705;DHT22;7952;48.396;12.806;2023-04-06T00:46:24;2.70;40.90
15705;DHT22;7952;48.396;12.806;2023-04-06T00:48:49;2.70;40.90
15705;DHT22;7952;48.396;12.806;2023-04-06T00:51:15;2.60;40.80
15705;DHT22;7952;48.396;12.806;2023-04-06T00:53:41;2.60;40.80
15705;DHT22;7952;48.396;12.806;2023-04-06T00:56:06;2.60;40.90
15705;DHT22;7952;48.396;12.806;2023-04-06T00:58:35;2.60;40.90
15705;DHT22;7952;48.396;12.806;2023-04-06T01:01:03;2.60;40.90
15705;DHT22;7952;48.396;12.806;2023-04-06T01:03:28;2.60;41.00
15705;DHT22;7952;48.396;12.806;2023-04-06T01:05:54;2.60;40.90
15705;DHT22;7952;48.396;12.806;2023-04-06T01:08:23;2.70;41.00
15705;DHT22;7952;48.396;12.806;2023-04-06T01:10:49;2.70;41.00
15705;DHT22;7952;48.396;12.806;2023-04-06T01:13:15;2.70;41.00
15705;DHT22;7952;48.396;12.806;2023-04-06T01:15:40;2.70;41.00
15705;DHT22;7952;48.396;12.806;2023-04-06T01:18:08;2.70;41.00
15705;DHT22;7952;48.396;12.806;2023-04-06T01:20:36;2.70;41.60
15705;DHT22;7952;48.396;12.806;2023-04-06T01:23:01;2.70;41.00
15705;DHT22;7952;48.396;12.806;2023-04-06T01:25:27;2.70;40.90
15705;DHT22;7952;48.396;12.806;2023-04-06T01:27:52;2.70;41.00
15705;DHT22;7952;48.396;12.806;2023-04-06T01:30:18;2.60;40.90
15705;DHT22;7952;48.396;12.806;2023-04-06T01:32:44;2.60;40.90
15705;DHT22;7952;48.396;12.806;2023-04-06T01:35:10;2.60;41.00
15705;DHT22;7952;48.396;12.806;2023-04-06T01:37:36;2.60;41.00
15705;DHT22;7952;48.396;12.806;2023-04-06T01:40:02;2.60;41.00
15705;DHT22;7952;48.396;12.806;2023-04-06T01:42:28;2.60;41.00
15705;DHT22;7952;48.396;12.806;2023-04-06T01:44:53;2.60;41.10
15705;DHT22;7952;48.396;12.806;2023-04-06T01:47:19;2.50;41.00
15705;DHT22;7952;48.396;12.806;2023-04-06T01:49:44;2.50;41.10
15705;DHT22;7952;48.396;12.806;2023-04-06T01:52:10;2.50;41.10
15705;DHT22;7952;48.396;12.806;2023-04-06T01:54:36;2.50;41.10
15705;DHT22;7952;48.396;12.806;2023-04-06T01:57:01;2.50;41.10
15705;DHT22;7952;48.396;12.806;2023-04-06T01:59:27;2.40;41.10
15705;DHT22;7952;48.396;12.806;2023-04-06T02:01:52;2.40;41.10
15705;DHT22;7952;48.396;12.806;2023-04-06T02:04:18;2.40;41.10
15705;DHT22;7952;48.396;12.806;2023-04-06T02:09:10;2.30;40.60
15705;DHT22;7952;48.396;12.806;2023-04-06T02:11:35;2.30;41.20
15705;DHT22;7952;48.396;12.806;2023-04-06T02:14:01;2.30;41.20
15705;DHT22;7952;48.396;12.806;2023-04-06T02:16:26;2.30;41.30
15705;DHT22;7952;48.396;12.806;2023-04-06T02:18:52;2.30;41.30
15705;DHT22;7952;48.396;12.806;2023-04-06T02:21:17;2.30;41.30
15705;DHT22;7952;48.396;12.806;2023-04-06T02:23:46;2.30;41.30
15705;DHT22;7952;48.396;12.806;2023-04-06T02:26:12;2.30;41.30
15705;DHT22;7952;48.396;12.806;2023-04-06T02:28:38;2.30;41.40
15705;DHT22;7952;48.396;12.806;2023-04-06T02:31:03;2.30;41.30
15705;DHT22;7952;48.396;12.806;2023-04-06T02:33:29;2.30;41.40
15705;DHT22;7952;48.396;12.806;2023-04-06T02:35:54;2.20;41.20
15705;DHT22;7952;48.396;12.806;2023-04-06T02:38:20;2.20;41.30
15705;DHT22;7952;48.396;12.806;2023-04-06T02:40:45;2.20;41.90
15705;DHT22;7952;48.396;12.806;2023-04-06T02:43:11;2.10;41.20
15705;DHT22;7952;48.396;12.806;2023-04-06T02:45:36;2.10;41.30
15705;DHT22;7952;48.396;12.806;2023-04-06T02:48:02;2.10;41.30
15705;DHT22;7952;48.396;12.806;2023-04-06T02:50:27;2.10;41.40
15705;DHT22;7952;48.396;12.806;2023-04-06T02:52:53;2.00;41.30
15705;DHT22;7952;48.396;12.806;2023-04-06T02:55:18;2.00;41.30
15705;DHT22;7952;48.396;12.806;2023-04-06T02:57:45;2.00;41.40
15705;DHT22;7952;48.396;12.806;2023-04-06T03:00:11;2.00;41.40
15705;DHT22;7952;48.396;12.806;2023-04-06T03:02:37;2.00;41.40
15705;DHT22;7952;48.396;12.806;2023-04-06T03:05:03;2.00;41.40
15705;DHT22;7952;48.396;12.806;2023-04-06T03:07:28;2.00;41.50
15705;DHT22;7952;48.396;12.806;2023-04-06T03:09:54;2.00;41.50
15705;DHT22;7952;48.396;12.806;2023-04-06T03:12:20;1.90;41.40
15705;DHT22;7952;48.396;12.806;2023-04-06T03:14:46;1.90;41.40
15705;DHT22;7952;48.396;12.806;2023-04-06T03:17:12;1.90;41.40
15705;DHT22;7952;48.396;12.806;2023-04-06T03:19:37;2.00;41.50
15705;DHT22;7952;48.396;12.806;2023-04-06T03:22:03;1.90;41.50
15705;DHT22;7952;48.396;12.806;2023-04-06T03:24:28;1.90;41.50
15705;DHT22;7952;48.396;12.806;2023-04-06T03:26:54;1.90;41.50
15705;DHT22;7952;48.396;12.806;2023-04-06T03:29:20;1.90;41.50
15705;DHT22;7952;48.396;12.806;2023-04-06T03:31:45;1.90;41.50
15705;DHT22;7952;48.396;12.806;2023-04-06T03:34:11;1.90;41.50
15705;DHT22;7952;48.396;12.806;2023-04-06T03:36:36;1.90;41.60
15705;DHT22;7952;48.396;12.806;2023-04-06T03:39:02;1.90;41.50
15705;DHT22;7952;48.396;12.806;2023-04-06T03:41:28;1.80;41.50
15705;DHT22;7952;48.396;12.806;2023-04-06T03:43:53;1.80;41.50
15705;DHT22;7952;48.396;12.806;2023-04-06T03:46:19;1.80;41.60
15705;DHT22;7952;48.396;12.806;2023-04-06T03:48:47;1.80;41.60
15705;DHT22;7952;48.396;12.806;2023-04-06T03:51:13;1.80;41.60
15705;DHT22;7952;48.396;12.806;2023-04-06T03:53:38;1.80;41.70
15705;DHT22;7952;48.396;12.806;2023-04-06T03:56:04;1.80;41.70
15705;DHT22;7952;48.396;12.806;2023-04-06T03:58:30;1.80;41.70
15705;DHT22;7952;48.396;12.806;2023-04-06T04:00:56;1.70;41.60
15705;DHT22;7952;48.396;12.806;2023-04-06T04:03:21;1.70;41.60
15705;DHT22;7952;48.396;12.806;2023-04-06T04:05:49;1.70;41.70
15705;DHT22;7952;48.396;12.806;2023-04-06T04:08:15;1.70;41.60
15705;DHT22;7952;48.396;12.806;2023-04-06T04:10:41;1.70;41.60
15705;DHT22;7952;48.396;12.806;2023-04-06T04:13:06;1.70;41.60
15705;DHT22;7952;48.396;12.806;2023-04-06T04:15:32;1.70;41.70
15705;DHT22;7952;48.396;12.806;2023-04-06T04:17:57;1.70;41.70
15705;DHT22;7952;48.396;12.806;2023-04-06T04:20:23;1.60;41.60
15705;DHT22;7952;48.396;12.806;2023-04-06T04:22:48;1.60;41.70
15705;DHT22;7952;48.396;12.806;2023-04-06T04:25:14;1.60;41.70
15705;DHT22;7952;48.396;12.806;2023-04-06T04:27:39;1.60;41.70
15705;DHT22;7952;48.396;12.806;2023-04-06T04:30:06;1.60;41.70
15705;DHT22;7952;48.396;12.806;2023-04-06T04:32:31;1.50;41.70
15705;DHT22;7952;48.396;12.806;2023-04-06T04:34:57;1.50;41.70
15705;DHT22;7952;48.396;12.806;2023-04-06T04:37:22;1.50;41.80
15705;DHT22;7952;48.396;12.806;2023-04-06T04:39:48;1.50;41.80
15705;DHT22;7952;48.396;12.806;2023-04-06T04:42:13;1.50;41.80
15705;DHT22;7952;48.396;12.806;2023-04-06T04:44:39;1.50;41.80
15705;DHT22;7952;48.396;12.806;2023-04-06T04:47:05;1.40;41.70
15705;DHT22;7952;48.396;12.806;2023-04-06T04:49:31;1.40;41.80
15705;DHT22;7952;48.396;12.806;2023-04-06T04:51:56;1.40;41.80
15705;DHT22;7952;48.396;12.806;2023-04-06T04:54:22;1.40;41.90
15705;DHT22;7952;48.396;12.806;2023-04-06T04:56:47;1.40;42.00
15705;DHT22;7952;48.396;12.806;2023-04-06T04:59:13;1.40;41.90
15705;DHT22;7952;48.396;12.806;2023-04-06T05:01:38;1.50;42.20
15705;DHT22;7952;48.396;12.806;2023-04-06T05:04:04;1.70;42.40
15705;DHT22;7952;48.396;12.806;2023-04-06T05:06:30;1.90;42.60
15705;DHT22;7952;48.396;12.806;2023-04-06T05:08:55;2.10;42.80
15705;DHT22;7952;48.396;12.806;2023-04-06T05:11:21;2.50;43.20
15705;DHT22;7952;48.396;12.806;2023-04-06T05:13:46;2.80;43.40
15705;DHT22;7952;48.396;12.806;2023-04-06T05:16:12;3.20;43.50
15705;DHT22;7952;48.396;12.806;2023-04-06T05:18:38;3.50;43.40
15705;DHT22;7952;48.396;12.806;2023-04-06T05:21:03;3.90;43.50
15705;DHT22;7952;48.396;12.806;2023-04-06T05:23:29;4.30;43.50
15705;DHT22;7952;48.396;12.806;2023-04-06T05:25:55;4.70;43.50
15705;DHT22;7952;48.396;12.806;2023-04-06T05:28:21;5.10;43.30
15705;DHT22;7952;48.396;12.806;2023-04-06T05:30:47;5.50;43.10
15705;DHT22;7952;48.396;12.806;2023-04-06T05:33:12;6.00;43.00
15705;DHT22;7952;48.396;12.806;2023-04-06T05:35:38;6.40;43.00
15705;DHT22;7952;48.396;12.806;2023-04-06T05:38:05;6.80;43.00
15705;DHT22;7952;48.396;12.806;2023-04-06T05:40:31;7.20;42.90
15705;DHT22;7952;48.396;12.806;2023-04-06T05:42:57;7.60;42.70
15705;DHT22;7952;48.396;12.806;2023-04-06T05:45:22;8.10;42.80
15705;DHT22;7952;48.396;12.806;2023-04-06T05:47:48;8.50;42.70
15705;DHT22;7952;48.396;12.806;2023-04-06T05:50:15;8.90;42.60
15705;DHT22;7952;48.396;12.806;2023-04-06T05:52:41;9.20;42.50
15705;DHT22;7952;48.396;12.806;2023-04-06T05:55:09;9.60;42.50
15705;DHT22;7952;48.396;12.806;2023-04-06T05:57:34;9.80;42.30
15705;DHT22;7952;48.396;12.806;2023-04-06T06:00:00;10.10;41.30
15705;DHT22;7952;48.396;12.806;2023-04-06T06:02:26;10.40;41.40
15705;DHT22;7952;48.396;12.806;2023-04-06T06:04:51;10.70;41.40
15705;DHT22;7952;48.396;12.806;2023-04-06T06:07:17;11.10;41.50
15705;DHT22;7952;48.396;12.806;2023-04-06T06:09:43;11.40;41.50
15705;DHT22;7952;48.396;12.806;2023-04-06T06:12:09;11.70;41.40
15705;DHT22;7952;48.396;12.806;2023-04-06T06:14:35;12.10;41.40
15705;DHT22;7952;48.396;12.806;2023-04-06T06:17:00;12.50;41.50
15705;DHT22;7952;48.396;12.806;2023-04-06T06:19:26;12.90;41.40
15705;DHT22;7952;48.396;12.806;2023-04-06T06:21:52;13.30;41.40
15705;DHT22;7952;48.396;12.806;2023-04-06T06:34:26;15.10;41.00
15705;DHT22;7952;48.396;12.806;2023-04-06T07:07:59;17.40;40.70
15705;DHT22;7952;48.396;12.806;2023-04-06T07:57:42;20.30;40.00
15705;DHT22;7952;48.396;12.806;2023-04-06T10:13:41;15.90;37.80
15705;DHT22;7952;48.396;12.806;2023-04-06T10:43:39;15.20;38.10
15705;DHT22;7952;48.396;12.806;2023-04-06T11:00:29;15.40;37.40
15705;DHT22;7952;48.396;12.806;2023-04-06T11:14:19;15.10;36.90
15705;DHT22;7952;48.396;12.806;2023-04-06T12:02:30;14.40;37.50
15705;DHT22;7952;48.396;12.806;2023-04-06T13:16:59;17.20;37.10
15705;DHT22;7952;48.396;12.806;2023-04-06T16:53:08;13.40;38.10
15705;DHT22;7952;48.396;12.806;2023-04-06T16:55:38;13.30;38.10
15705;DHT22;7952;48.396;12.806;2023-04-06T16:58:05;13.20;38.00
15705;DHT22;7952;48.396;12.806;2023-04-06T17:06:57;13.00;38.10
15705;DHT22;7952;48.396;12.806;2023-04-06T17:09:23;12.90;38.00
15705;DHT22;7952;48.396;12.806;2023-04-06T17:11:49;12.80;38.00
15705;DHT22;7952;48.396;12.806;2023-04-06T17:14:17;12.70;38.10
15705;DHT22;7952;48.396;12.806;2023-04-06T17:16:49;12.60;38.10
15705;DHT22;7952;48.396;12.806;2023-04-06T17:19:14;12.60;38.20
15705;DHT22;7952;48.396;12.806;2023-04-06T17:21:40;12.50;38.10
15705;DHT22;7952;48.396;12.806;2023-04-06T17:24:06;12.40;38.10
15705;DHT22;7952;48.396;12.806;2023-04-06T17:26:33;12.30;38.10
15705;DHT22;7952;48.396;12.806;2023-04-06T17:28:59;12.20;38.10
15705;DHT22;7952;48.396;12.806;2023-04-06T17:31:24;12.10;38.10
15705;DHT22;7952;48.396;12.806;2023-04-06T17:33:50;12.00;38.00
15705;DHT22;7952;48.396;12.806;2023-04-06T17:36:16;11.90;38.00
15705;DHT22;7952;48.396;12.806;2023-04-06T17:41:21;11.70;37.90
15705;DHT22;7952;48.396;12.806;2023-04-06T17:43:47;11.60;38.00
15705;DHT22;7952;48.396;12.806;2023-04-06T17:46:13;11.50;38.00
15705;DHT22;7952;48.396;12.806;2023-04-06T17:52:45;11.30;38.10
15705;DHT22;7952;48.396;12.806;2023-04-06T17:55:19;11.10;38.00
15705;DHT22;7952;48.396;12.806;2023-04-06T17:57:46;11.00;38.10
15705;DHT22;7952;48.396;12.806;2023-04-06T18:00:13;10.90;38.10
15705;DHT22;7952;48.396;12.806;2023-04-06T18:02:41;10.90;38.10
15705;DHT22;7952;48.396;12.806;2023-04-06T18:05:07;10.80;38.00
15705;DHT22;7952;48.396;12.806;2023-04-06T18:07:32;10.70;38.00
15705;DHT22;7952;48.396;12.806;2023-04-06T18:10:01;10.60;37.90
15705;DHT22;7952;48.396;12.806;2023-04-06T18:12:27;10.60;38.00
15705;DHT22;7952;48.396;12.806;2023-04-06T18:14:52;10.50;37.90
15705;DHT22;7952;48.396;12.806;2023-04-06T18:17:18;10.40;37.90
15705;DHT22;7952;48.396;12.806;2023-04-06T18:19:43;10.40;38.00
15705;DHT22;7952;48.396;12.806;2023-04-06T18:22:09;10.30;37.90
15705;DHT22;7952;48.396;12.806;2023-04-06T18:24:36;10.30;37.90
15705;DHT22;7952;48.396;12.806;2023-04-06T18:27:01;10.20;37.90
15705;DHT22;7952;48.396;12.806;2023-04-06T18:29:27;10.20;37.90
15705;DHT22;7952;48.396;12.806;2023-04-06T18:31:52;10.10;37.90
15705;DHT22;7952;48.396;12.806;2023-04-06T18:34:20;10.10;37.90
15705;DHT22;7952;48.396;12.806;2023-04-06T18:36:46;10.00;37.90
15705;DHT22;7952;48.396;12.806;2023-04-06T18:39:11;10.00;37.90
15705;DHT22;7952;48.396;12.806;2023-04-06T18:41:37;9.90;38.90
15705;DHT22;7952;48.396;12.806;2023-04-06T18:44:03;9.80;38.80
15705;DHT22;7952;48.396;12.806;2023-04-06T18:46:29;9.70;38.80
15705;DHT22;7952;48.396;12.806;2023-04-06T18:48:55;9.70;38.90
15705;DHT22;7952;48.396;12.806;2023-04-06T18:51:20;9.60;38.90
15705;DHT22;7952;48.396;12.806;2023-04-06T18:53:46;9.50;38.90
15705;DHT22;7952;48.396;12.806;2023-04-06T18:56:16;9.40;38.90
15705;DHT22;7952;48.396;12.806;2023-04-06T18:58:43;9.40;39.00
15705;DHT22;7952;48.396;12.806;2023-04-06T19:01:10;9.30;39.00
15705;DHT22;7952;48.396;12.806;2023-04-06T19:03:36;9.20;39.10
15705;DHT22;7952;48.396;12.806;2023-04-06T19:06:04;9.10;39.00
15705;DHT22;7952;48.396;12.806;2023-04-06T19:08:32;9.10;39.10
15705;DHT22;7952;48.396;12.806;2023-04-06T19:10:57;9.00;39.10
15705;DHT22;7952;48.396;12.806;2023-04-06T19:13:23;9.00;39.20
15705;DHT22;7952;48.396;12.806;2023-04-06T19:15:49;8.90;39.10
15705;DHT22;7952;48.396;12.806;2023-04-06T19:18:15;8.90;39.20
15705;DHT22;7952;48.396;12.806;2023-04-06T19:20:41;8.90;39.30
15705;DHT22;7952;48.396;12.806;2023-04-06T19:23:06;8.80;39.20
15705;DHT22;7952;48.396;12.806;2023-04-06T19:25:32;8.80;39.30
15705;DHT22;7952;48.396;12.806;2023-04-06T19:27:58;8.70;39.20
15705;DHT22;7952;48.396;12.806;2023-04-06T19:30:24;8.70;39.30
15705;DHT22;7952;48.396;12.806;2023-04-06T19:32:50;8.60;39.20
15705;DHT22;7952;48.396;12.806;2023-04-06T19:35:15;8.60;39.30
15705;DHT22;7952;48.396;12.806;2023-04-06T19:37:42;8.50;39.20
15705;DHT22;7952;48.396;12.806;2023-04-06T19:40:08;8.50;39.30
15705;DHT22;7952;48.396;12.806;2023-04-06T19:42:37;8.40;39.30
15705;DHT22;7952;48.396;12.806;2023-04-06T19:45:04;8.40;39.30
15705;DHT22;7952;48.396;12.806;2023-04-06T19:47:30;8.30;39.30
15705;DHT22;7952;48.396;12.806;2023-04-06T19:49:55;8.30;39.40
15705;DHT22;7952;48.396;12.806;2023-04-06T19:52:21;8.30;39.40
15705;DHT22;7952;48.396;12.806;2023-04-06T19:54:47;8.30;39.50
15705;DHT22;7952;48.396;12.806;2023-04-06T19:57:13;8.30;39.50
15705;DHT22;7952;48.396;12.806;2023-04-06T19:59:38;8.20;39.40
15705;DHT22;7952;48.396;12.806;2023-04-06T20:02:04;8.20;39.50
15705;DHT22;7952;48.396;12.806;2023-04-06T20:04:33;8.20;39.50
15705;DHT22;7952;48.396;12.806;2023-04-06T20:06:59;8.20;39.50
15705;DHT22;7952;48.396;12.806;2023-04-06T20:09:25;8.20;39.50
15705;DHT22;7952;48.396;12.806;2023-04-06T20:11:51;8.20;39.50
15705;DHT22;7952;48.396;12.806;2023-04-06T20:14:18;8.10;39.50
15705;DHT22;7952;48.396;12.806;2023-04-06T20:16:44;8.10;39.50
15705;DHT22;7952;48.396;12.806;2023-04-06T20:19:10;8.10;39.50
15705;DHT22;7952;48.396;12.806;2023-04-06T20:21:36;8.10;39.50
15705;DHT22;7952;48.396;12.806;2023-04-06T20:24:01;8.10;39.50
15705;DHT22;7952;48.396;12.806;2023-04-06T20:26:27;8.10;39.50
15705;DHT22;7952;48.396;12.806;2023-04-06T20:28:52;8.00;39.40
15705;DHT22;7952;48.396;12.806;2023-04-06T20:31:18;8.00;39.40
15705;DHT22;7952;48.396;12.806;2023-04-06T20:33:43;8.00;39.50
15705;DHT22;7952;48.396;12.806;2023-04-06T20:36:10;7.90;39.40
15705;DHT22;7952;48.396;12.806;2023-04-06T20:38:37;7.90;39.50
15705;DHT22;7952;48.396;12.806;2023-04-06T20:41:02;7.90;39.50
15705;DHT22;7952;48.396;12.806;2023-04-06T20:43:28;7.90;39.50
15705;DHT22;7952;48.396;12.806;2023-04-06T20:45:55;7.90;39.50
15705;DHT22;7952;48.396;12.806;2023-04-06T20:48:22;7.90;39.50
15705;DHT22;7952;48.396;12.806;2023-04-06T20:50:50;7.90;39.50
15705;DHT22;7952;48.396;12.806;2023-04-06T20:53:19;7.90;39.50
15705;DHT22;7952;48.396;12.806;2023-04-06T20:55:45;7.80;39.40
15705;DHT22;7952;48.396;12.806;2023-04-06T20:58:11;7.80;39.40
15705;DHT22;7952;48.396;12.806;2023-04-06T21:00:37;7.80;39.40
15705;DHT22;7952;48.396;12.806;2023-04-06T21:03:02;7.70;39.40
15705;DHT22;7952;48.396;12.806;2023-04-06T21:05:28;7.70;39.40
15705;DHT22;7952;48.396;12.806;2023-04-06T21:07:53;7.60;39.40
15705;DHT22;7952;48.396;12.806;2023-04-06T21:10:19;7.60;39.50
15705;DHT22;7952;48.396;12.806;2023-04-06T21:12:46;7.50;39.40
15705;DHT22;7952;48.396;12.806;2023-04-06T21:15:11;7.50;39.50
15705;DHT22;7952;48.396;12.806;2023-04-06T21:17:37;7.50;39.50
15705;DHT22;7952;48.396;12.806;2023-04-06T21:20:02;7.40;39.50
15705;DHT22;7952;48.396;12.806;2023-04-06T21:22:29;7.40;39.50
15705;DHT22;7952;48.396;12.806;2023-04-06T21:24:55;7.30;39.50
15705;DHT22;7952;48.396;12.806;2023-04-06T21:27:20;7.20;39.50
15705;DHT22;7952;48.396;12.806;2023-04-06T21:29:46;7.20;39.60
15705;DHT22;7952;48.396;12.806;2023-04-06T21:32:12;7.10;39.60
15705;DHT22;7952;48.396;12.806;2023-04-06T21:34:40;7.10;39.70
15705;DHT22;7952;48.396;12.806;2023-04-06T21:37:06;7.00;39.70
15705;DHT22;7952;48.396;12.806;2023-04-06T21:39:31;7.00;39.70
15705;DHT22;7952;48.396;12.806;2023-04-06T21:41:57;7.00;39.80
15705;DHT22;7952;48.396;12.806;2023-04-06T21:44:22;7.00;39.80
15705;DHT22;7952;48.396;12.806;2023-04-06T21:46:48;6.90;39.70
15705;DHT22;7952;48.396;12.806;2023-04-06T21:49:13;6.90;39.80
15705;DHT22;7952;48.396;12.806;2023-04-06T21:51:39;6.90;39.80
15705;DHT22;7952;48.396;12.806;2023-04-06T21:54:05;6.90;39.90
15705;DHT22;7952;48.396;12.806;2023-04-06T21:56:31;6.80;40.40
15705;DHT22;7952;48.396;12.806;2023-04-06T21:58:56;6.80;39.80
15705;DHT22;7952;48.396;12.806;2023-04-06T22:01:22;6.80;39.80
15705;DHT22;7952;48.396;12.806;2023-04-06T22:03:48;6.80;39.90
15705;DHT22;7952;48.396;12.806;2023-04-06T22:06:13;6.80;39.90
15705;DHT22;7952;48.396;12.806;2023-04-06T22:08:39;6.80;39.90
15705;DHT22;7952;48.396;12.806;2023-04-06T22:11:08;6.70;39.80
15705;DHT22;7952;48.396;12.806;2023-04-06T22:13:35;6.70;39.80
15705;DHT22;7952;48.396;12.806;2023-04-06T22:16:01;6.60;39.80
15705;DHT22;7952;48.396;12.806;2023-04-06T22:18:27;6.60;39.80
15705;DHT22;7952;48.396;12.806;2023-04-06T22:20:53;6.50;39.80
15705;DHT22;7952;48.396;12.806;2023-04-06T22:23:18;6.50;39.80
15705;DHT22;7952;48.396;12.806;2023-04-06T22:25:45;6.50;39.80
15705;DHT22;7952;48.396;12.806;2023-04-06T22:28:11;6.40;39.80
15705;DHT22;7952;48.396;12.806;2023-04-06T22:30:36;6.40;39.90
15705;DHT22;7952;48.396;12.806;2023-04-06T22:33:02;6.40;40.00
15705;DHT22;7952;48.396;12.806;2023-04-06T22:35:27;6.30;39.90
15705;DHT22;7952;48.396;12.806;2023-04-06T22:37:53;6.30;40.00
15705;DHT22;7952;48.396;12.806;2023-04-06T22:40:19;6.30;40.00
15705;DHT22;7952;48.396;12.806;2023-04-06T22:42:44;6.20;39.90
15705;DHT22;7952;48.396;12.806;2023-04-06T22:45:10;6.20;40.00
15705;DHT22;7952;48.396;12.806;2023-04-06T22:47:36;6.20;40.00
15705;DHT22;7952;48.396;12.806;2023-04-06T22:50:01;6.20;40.00
15705;DHT22;7952;48.396;12.806;2023-04-06T22:52:27;6.20;40.00
15705;DHT22;7952;48.396;12.806;2023-04-06T22:54:53;6.20;40.00
15705;DHT22;7952;48.396;12.806;2023-04-06T22:57:18;6.10;40.00
15705;DHT22;7952;48.396;12.806;2023-04-06T22:59:47;6.10;40.00
15705;DHT22;7952;48.396;12.806;2023-04-06T23:02:12;6.10;40.00
15705;DHT22;7952;48.396;12.806;2023-04-06T23:04:38;6.00;40.00
15705;DHT22;7952;48.396;12.806;2023-04-06T23:07:03;6.00;40.00
15705;DHT22;7952;48.396;12.806;2023-04-06T23:09:29;6.00;40.10
15705;DHT22;7952;48.396;12.806;2023-04-06T23:11:55;6.00;40.10
15705;DHT22;7952;48.396;12.806;2023-04-06T23:14:21;5.90;40.10
15705;DHT22;7952;48.396;12.806;2023-04-06T23:16:46;5.90;40.10
15705;DHT22;7952;48.396;12.806;2023-04-06T23:19:12;5.90;40.20
15705;DHT22;7952;48.396;12.806;2023-04-06T23:21:37;6.00;40.90
15705;DHT22;7952;48.396;12.806;2023-04-06T23:24:03;6.00;40.30
15705;DHT22;7952;48.396;12.806;2023-04-06T23:26:29;6.10;40.30
15705;DHT22;7952;48.396;12.806;2023-04-06T23:28:54;6.10;40.20
15705;DHT22;7952;48.396;12.806;2023-04-06T23:31:20;6.20;40.20
15705;DHT22;7952;48.396;12.806;2023-04-06T23:33:46;6.30;40.20
15705;DHT22;7952;48.396;12.806;2023-04-06T23:36:11;6.30;40.40
15705;DHT22;7952;48.396;12.806;2023-04-06T23:38:37;6.40;40.10
15705;DHT22;7952;48.396;12.806;2023-04-06T23:41:02;6.40;40.00
15705;DHT22;7952;48.396;12.806;2023-04-06T23:43:28;6.40;40.00
15705;DHT22;7952;48.396;12.806;2023-04-06T23:45:53;6.50;40.00
15705;DHT22;7952;48.396;12.806;2023-04-06T23:48:19;6.50;39.90
15705;DHT22;7952;48.396;12.806;2023-04-06T23:50:44;6.40;39.80
15705;DHT22;7952;48.396;12.806;2023-04-06T23:53:10;6.40;39.90
15705;DHT22;7952;48.396;12.806;2023-04-06T23:55:35;6.40;40.00
15705;DHT22;7952;48.396;12.806;2023-04-06T23:58:01;6.30;39.90
